createdAt,value
2022-12-11T00:01:29.703Z,65.12
2022-12-11T00:03:01.142Z,57.73
2022-12-11T00:04:32.527Z,61.26
2022-12-11T00:06:03.680Z,61.00
2022-12-11T00:07:35.002Z,60.32
2022-12-11T00:09:06.264Z,63.19
2022-12-11T00:10:37.983Z,58.66
2022-12-11T00:12:09.527Z,61.26
2022-12-11T00:13:40.902Z,59.40
2022-12-11T00:15:12.487Z,58.01
2022-12-11T00:16:44.316Z,57.57
2022-12-11T00:18:15.734Z,60.55
2022-12-11T00:19:46.953Z,59.66
2022-12-11T00:21:18.097Z,59.73
2022-12-11T00:22:49.564Z,58.16
2022-12-11T00:24:20.733Z,59.74
2022-12-11T00:25:52.144Z,58.27
2022-12-11T00:27:23.510Z,64.60
2022-12-11T00:28:54.672Z,70.66
2022-12-11T00:30:26.074Z,73.30
2022-12-11T00:31:57.743Z,74.84
2022-12-11T00:33:29.057Z,71.52
2022-12-11T00:35:01.123Z,74.30
2022-12-11T00:36:32.406Z,73.06
2022-12-11T00:38:03.569Z,77.54
2022-12-11T00:39:35.175Z,80.13
2022-12-11T00:41:06.831Z,83.49
2022-12-11T00:42:38.442Z,80.24
2022-12-11T00:44:09.680Z,73.34
2022-12-11T00:45:41.003Z,67.58
2022-12-11T00:47:12.540Z,80.53
2022-12-11T00:48:44.275Z,80.31
2022-12-11T00:50:15.876Z,83.59
2022-12-11T00:51:47.204Z,82.14
2022-12-11T00:53:19.364Z,81.37
2022-12-11T00:54:50.877Z,87.41
2022-12-11T00:56:22.457Z,89.11
2022-12-11T00:57:53.616Z,81.99
2022-12-11T00:59:24.919Z,83.67
2022-12-11T01:00:56.421Z,74.10
2022-12-11T01:02:27.847Z,66.35
2022-12-11T01:03:59.168Z,77.50
2022-12-11T01:05:30.407Z,71.14
2022-12-11T01:07:01.792Z,71.90
2022-12-11T01:08:38.371Z,82.23
2022-12-11T01:10:10.157Z,76.41
2022-12-11T01:11:41.375Z,75.90
2022-12-11T01:13:12.648Z,73.78
2022-12-11T01:14:44.057Z,69.22
2022-12-11T01:16:15.502Z,47.74
2022-12-11T01:17:46.801Z,61.13
2022-12-11T01:19:17.997Z,55.64
2022-12-11T01:20:49.561Z,59.42
2022-12-11T01:22:20.694Z,66.50
2022-12-11T01:23:51.985Z,63.00
2022-12-11T01:25:23.723Z,65.64
2022-12-11T01:26:55.028Z,65.72
2022-12-11T01:28:26.273Z,66.42
2022-12-11T01:29:58.041Z,65.59
2022-12-11T01:31:29.441Z,71.09
2022-12-11T01:33:00.811Z,67.15
2022-12-11T01:34:32.072Z,66.28
2022-12-11T01:36:03.446Z,71.10
2022-12-11T01:37:39.833Z,67.28
2022-12-11T01:39:11.107Z,71.69
2022-12-11T01:40:50.404Z,71.90
2022-12-11T01:42:22.084Z,67.21
2022-12-11T01:43:53.243Z,65.99
2022-12-11T01:45:26.885Z,70.64
2022-12-11T01:46:58.701Z,69.91
2022-12-11T01:48:30.096Z,68.46
2022-12-11T01:50:01.475Z,69.67
2022-12-11T01:51:32.972Z,65.43
2022-12-11T01:53:04.512Z,68.84
2022-12-11T01:54:35.952Z,65.21
2022-12-11T01:56:07.350Z,68.01
2022-12-11T01:57:38.760Z,70.14
2022-12-11T01:59:10.216Z,72.77
2022-12-11T02:00:41.494Z,70.14
2022-12-11T02:02:12.704Z,75.67
2022-12-11T02:03:44.075Z,72.16
2022-12-11T02:05:15.483Z,78.74
2022-12-11T02:06:46.849Z,81.69
2022-12-11T02:08:18.074Z,77.34
2022-12-11T02:09:49.625Z,87.60
2022-12-11T02:11:20.969Z,80.28
2022-12-11T02:12:52.131Z,90.07
2022-12-11T02:14:23.326Z,84.01
2022-12-11T02:15:54.515Z,90.85
2022-12-11T02:17:26.008Z,88.39
2022-12-11T02:18:57.236Z,86.91
2022-12-11T02:20:28.445Z,95.00
2022-12-11T02:21:59.903Z,94.83
2022-12-11T02:23:31.098Z,97.39
2022-12-11T02:25:02.338Z,97.50
2022-12-11T02:26:33.781Z,94.16
2022-12-11T02:28:04.998Z,99.00
2022-12-11T02:29:36.444Z,103.95
2022-12-11T02:31:07.910Z,95.56
2022-12-11T02:32:39.255Z,91.69
2022-12-11T02:34:10.762Z,85.68
2022-12-11T02:35:42.239Z,99.44
2022-12-11T02:37:13.578Z,99.30
2022-12-11T02:38:44.923Z,108.39
2022-12-11T02:40:16.380Z,99.41
2022-12-11T02:41:47.930Z,100.74
2022-12-11T02:43:19.293Z,111.21
2022-12-11T02:44:50.664Z,95.69
2022-12-11T02:46:21.976Z,100.03
2022-12-11T02:47:53.126Z,106.39
2022-12-11T02:49:24.420Z,104.20
2022-12-11T02:50:55.754Z,105.95
2022-12-11T02:52:27.175Z,105.51
2022-12-11T02:53:58.471Z,103.49
2022-12-11T02:55:29.756Z,103.08
2022-12-11T02:57:01.136Z,95.77
2022-12-11T02:58:32.717Z,105.82
2022-12-11T03:00:04.092Z,103.37
2022-12-11T03:01:35.759Z,99.66
2022-12-11T03:03:07.100Z,99.26
2022-12-11T03:04:38.302Z,104.19
2022-12-11T03:06:09.458Z,99.12
2022-12-11T03:07:40.801Z,108.08
2022-12-11T03:09:11.947Z,112.43
2022-12-11T03:10:43.268Z,109.52
2022-12-11T03:12:14.542Z,109.91
2022-12-11T03:13:45.816Z,116.57
2022-12-11T03:15:17.017Z,114.03
2022-12-11T03:16:48.235Z,118.92
2022-12-11T03:18:19.762Z,112.54
2022-12-11T03:19:50.952Z,106.03
2022-12-11T03:21:22.249Z,107.74
2022-12-11T03:22:53.487Z,111.01
2022-12-11T03:24:24.657Z,114.40
2022-12-11T03:25:56.066Z,117.97
2022-12-11T03:27:27.365Z,108.85
2022-12-11T03:28:58.943Z,108.22
2022-12-11T03:30:30.258Z,113.91
2022-12-11T03:32:01.558Z,110.86
2022-12-11T03:33:32.758Z,98.54
2022-12-11T03:35:04.125Z,107.92
2022-12-11T03:36:35.347Z,110.79
2022-12-11T03:38:06.906Z,112.17
2022-12-11T03:39:38.189Z,116.10
2022-12-11T03:41:09.756Z,117.18
2022-12-11T03:42:41.064Z,116.61
2022-12-11T03:44:12.551Z,110.28
2022-12-11T03:45:43.971Z,109.00
2022-12-11T03:47:15.708Z,108.37
2022-12-11T03:48:46.839Z,114.34
2022-12-11T03:50:18.133Z,116.48
2022-12-11T03:51:49.834Z,113.34
2022-12-11T03:53:21.189Z,104.09
2022-12-11T03:54:52.490Z,112.16
2022-12-11T03:56:23.686Z,112.62
2022-12-11T03:57:54.853Z,114.66
2022-12-11T03:59:26.340Z,108.51
2022-12-11T04:00:57.727Z,111.97
2022-12-11T04:02:29.121Z,111.96
2022-12-11T04:04:00.445Z,118.70
2022-12-11T04:05:31.792Z,118.02
2022-12-11T04:07:03.241Z,119.08
2022-12-11T04:08:34.855Z,109.37
2022-12-11T04:10:06.145Z,114.96
2022-12-11T04:11:37.434Z,121.35
2022-12-11T04:13:08.806Z,111.25
2022-12-11T04:14:40.092Z,114.65
2022-12-11T04:16:11.518Z,102.91
2022-12-11T04:17:42.896Z,91.06
2022-12-11T04:19:14.261Z,88.75
2022-12-11T04:20:45.431Z,83.85
2022-12-11T04:22:16.716Z,86.24
2022-12-11T04:23:48.086Z,87.83
2022-12-11T04:25:19.330Z,85.88
2022-12-11T04:26:50.673Z,82.65
2022-12-11T04:28:21.876Z,80.27
2022-12-11T04:29:54.341Z,74.42
2022-12-11T04:31:25.696Z,77.97
2022-12-11T04:32:56.928Z,74.04
2022-12-11T04:34:28.351Z,74.92
2022-12-11T04:36:00.012Z,73.23
2022-12-11T04:37:31.226Z,71.91
2022-12-11T04:39:02.486Z,70.46
2022-12-11T04:40:33.738Z,65.68
2022-12-11T04:42:05.074Z,72.06
2022-12-11T04:43:36.576Z,74.48
2022-12-11T04:45:08.075Z,71.85
2022-12-11T04:46:40.871Z,71.62
2022-12-11T04:48:12.142Z,72.64
2022-12-11T04:49:43.581Z,72.17
2022-12-11T04:51:14.884Z,70.13
2022-12-11T04:52:46.271Z,63.80
2022-12-11T04:54:17.673Z,69.97
2022-12-11T04:55:49.238Z,68.20
2022-12-11T04:57:20.637Z,66.14
2022-12-11T04:58:52.355Z,66.18
2022-12-11T05:00:23.625Z,65.67
2022-12-11T05:01:55.096Z,66.38
2022-12-11T05:03:26.495Z,64.89
2022-12-11T05:04:58.340Z,67.90
2022-12-11T05:06:29.796Z,62.51
2022-12-11T05:08:01.251Z,62.56
2022-12-11T05:09:32.556Z,61.16
2022-12-11T05:11:03.688Z,62.11
2022-12-11T05:12:34.918Z,63.25
2022-12-11T05:14:06.379Z,63.42
2022-12-11T05:15:37.929Z,63.32
2022-12-11T05:17:10.610Z,64.36
2022-12-11T05:18:41.985Z,63.87
2022-12-11T05:20:13.345Z,62.92
2022-12-11T05:21:44.472Z,59.94
2022-12-11T05:23:15.769Z,59.85
2022-12-11T05:24:47.187Z,59.21
2022-12-11T05:26:18.571Z,58.39
2022-12-11T05:27:50.050Z,59.22
2022-12-11T05:29:21.644Z,55.97
2022-12-11T05:30:53.207Z,56.00
2022-12-11T05:32:24.679Z,60.72
2022-12-11T05:33:56.569Z,60.28
2022-12-11T05:35:27.726Z,59.03
2022-12-11T05:36:59.037Z,54.98
2022-12-11T05:38:30.309Z,57.61
2022-12-11T05:40:01.690Z,58.23
2022-12-11T05:41:32.982Z,56.39
2022-12-11T05:43:04.437Z,57.33
2022-12-11T05:44:35.970Z,56.59
2022-12-11T05:46:07.339Z,57.71
2022-12-11T05:47:38.757Z,61.41
2022-12-11T05:49:10.210Z,59.54
2022-12-11T05:50:41.728Z,61.10
2022-12-11T05:52:13.281Z,57.03
2022-12-11T05:53:44.498Z,60.42
2022-12-11T05:55:15.791Z,62.09
2022-12-11T05:56:47.185Z,60.73
2022-12-11T05:58:18.378Z,57.69
2022-12-11T05:59:49.709Z,60.62
2022-12-11T06:01:20.875Z,61.98
2022-12-11T06:02:52.373Z,58.56
2022-12-11T06:04:23.778Z,63.59
2022-12-11T06:05:55.275Z,64.01
2022-12-11T06:07:26.784Z,66.05
2022-12-11T06:08:58.415Z,63.54
2022-12-11T06:10:29.960Z,61.93
2022-12-11T06:12:01.401Z,66.45
2022-12-11T06:13:32.879Z,63.20
2022-12-11T06:15:04.291Z,61.45
2022-12-11T06:16:35.761Z,62.96
2022-12-11T06:18:07.005Z,65.10
2022-12-11T06:19:38.215Z,64.33
2022-12-11T06:21:09.504Z,66.96
2022-12-11T06:22:40.661Z,63.67
2022-12-11T06:24:11.827Z,66.57
2022-12-11T06:25:43.261Z,64.89
2022-12-11T06:27:14.684Z,63.68
2022-12-11T06:28:45.994Z,61.92
2022-12-11T06:30:17.383Z,61.71
2022-12-11T06:31:48.603Z,62.39
2022-12-11T06:33:20.150Z,62.46
2022-12-11T06:34:51.444Z,62.95
2022-12-11T06:36:22.863Z,62.96
2022-12-11T06:37:54.068Z,61.71
2022-12-11T06:39:25.263Z,61.44
2022-12-11T06:40:56.486Z,63.06
2022-12-11T06:42:28.040Z,62.20
2022-12-11T06:43:59.333Z,66.33
2022-12-11T06:45:30.737Z,63.10
2022-12-11T06:47:02.071Z,65.10
2022-12-11T06:48:33.275Z,69.76
2022-12-11T06:50:04.920Z,72.75
2022-12-11T06:51:36.535Z,66.54
2022-12-11T06:53:07.920Z,67.73
2022-12-11T06:54:39.257Z,65.51
2022-12-11T06:56:10.536Z,67.11
2022-12-11T06:57:41.986Z,65.69
2022-12-11T06:59:13.375Z,65.04
2022-12-11T07:00:44.570Z,65.01
2022-12-11T07:02:16.056Z,65.21
2022-12-11T07:03:47.242Z,64.38
2022-12-11T07:05:18.660Z,61.08
2022-12-11T07:06:50.287Z,63.56
2022-12-11T07:08:21.544Z,66.28
2022-12-11T07:09:52.717Z,62.10
2022-12-11T07:11:24.042Z,56.47
2022-12-11T07:12:56.250Z,62.00
2022-12-11T07:14:27.565Z,59.33
2022-12-11T07:15:58.879Z,56.90
2022-12-11T07:17:30.126Z,59.04
2022-12-11T07:19:01.681Z,56.82
2022-12-11T07:20:32.812Z,53.63
2022-12-11T07:22:05.337Z,55.13
2022-12-11T07:23:36.608Z,52.11
2022-12-11T07:25:08.285Z,51.04
2022-12-11T07:26:40.015Z,50.33
2022-12-11T07:28:16.531Z,48.29
2022-12-11T07:29:48.673Z,47.96
2022-12-11T07:31:20.294Z,43.56
2022-12-11T07:32:51.789Z,42.43
2022-12-11T07:34:23.121Z,41.23
2022-12-11T07:35:54.566Z,41.28
2022-12-11T07:37:25.911Z,44.72
2022-12-11T07:38:57.467Z,41.12
2022-12-11T07:40:28.666Z,36.37
2022-12-11T07:42:00.100Z,36.56
2022-12-11T07:43:31.573Z,36.20
2022-12-11T07:45:02.846Z,36.41
2022-12-11T07:46:34.086Z,33.38
2022-12-11T07:48:05.535Z,32.14
2022-12-11T07:49:41.939Z,32.80
2022-12-11T07:51:13.564Z,30.49
2022-12-11T07:52:44.785Z,33.99
2022-12-11T07:54:16.041Z,34.92
2022-12-11T07:55:47.430Z,32.54
2022-12-11T07:57:18.851Z,33.12
2022-12-11T07:58:50.079Z,33.27
2022-12-11T08:00:21.518Z,34.39
2022-12-11T08:01:52.930Z,34.54
2022-12-11T08:03:24.246Z,32.73
2022-12-11T08:04:55.455Z,34.39
2022-12-11T08:06:26.769Z,34.41
2022-12-11T08:07:58.260Z,33.76
2022-12-11T08:09:29.774Z,35.63
2022-12-11T08:11:00.962Z,34.87
2022-12-11T08:12:32.233Z,35.34
2022-12-11T08:14:03.420Z,35.41
2022-12-11T08:15:34.588Z,35.37
2022-12-11T08:17:05.935Z,38.47
2022-12-11T08:18:38.006Z,35.24
2022-12-11T08:20:09.220Z,34.47
2022-12-11T08:21:40.791Z,37.70
2022-12-11T08:23:12.190Z,36.25
2022-12-11T08:24:43.507Z,38.83
2022-12-11T08:26:15.013Z,36.91
2022-12-11T08:27:46.229Z,35.87
2022-12-11T08:29:17.650Z,33.19
2022-12-11T08:30:49.261Z,31.30
2022-12-11T08:32:20.768Z,30.75
2022-12-11T08:33:53.008Z,31.23
2022-12-11T08:35:24.608Z,31.22
2022-12-11T08:36:56.156Z,30.96
2022-12-11T08:38:28.108Z,31.13
2022-12-11T08:39:59.658Z,30.85
2022-12-11T08:41:30.989Z,35.07
2022-12-11T08:43:02.251Z,34.54
2022-12-11T08:44:33.703Z,36.40
2022-12-11T08:46:05.274Z,35.14
2022-12-11T08:47:42.261Z,33.78
2022-12-11T08:49:13.432Z,31.83
2022-12-11T08:50:44.748Z,33.20
2022-12-11T08:52:16.299Z,33.36
2022-12-11T08:53:47.585Z,32.52
2022-12-11T08:55:18.900Z,34.29
2022-12-11T08:56:54.814Z,34.84
2022-12-11T08:58:29.219Z,34.62
2022-12-11T09:00:00.619Z,33.65
2022-12-11T09:01:31.909Z,34.05
2022-12-11T09:03:04.583Z,32.58
2022-12-11T09:04:57.606Z,31.41
2022-12-11T09:06:29.159Z,29.93
2022-12-11T09:08:00.397Z,29.36
2022-12-11T09:09:31.747Z,30.46
2022-12-11T09:11:02.910Z,32.06
2022-12-11T09:12:34.356Z,30.04
2022-12-11T09:14:07.826Z,32.41
2022-12-11T09:15:39.676Z,30.66
2022-12-11T09:17:11.044Z,30.72
2022-12-11T09:18:42.422Z,30.74
2022-12-11T09:20:13.774Z,31.88
2022-12-11T09:21:44.977Z,32.45
2022-12-11T09:23:21.214Z,32.63
2022-12-11T09:25:02.524Z,32.01
2022-12-11T09:26:33.778Z,33.37
2022-12-11T09:28:04.987Z,33.13
2022-12-11T09:29:36.242Z,33.48
2022-12-11T09:31:07.790Z,37.17
2022-12-11T09:32:39.027Z,34.57
2022-12-11T09:34:10.439Z,34.14
2022-12-11T09:35:51.871Z,34.45
2022-12-11T09:37:23.383Z,35.34
2022-12-11T09:38:54.876Z,34.09
2022-12-11T09:40:26.216Z,32.94
2022-12-11T09:41:57.721Z,32.17
2022-12-11T09:43:29.439Z,34.49
2022-12-11T09:45:01.196Z,34.46
2022-12-11T09:46:37.552Z,33.34
2022-12-11T09:48:09.403Z,30.66
2022-12-11T09:49:40.874Z,29.29
2022-12-11T09:51:12.263Z,27.32
2022-12-11T09:52:43.705Z,36.00
2022-12-11T09:54:19.943Z,31.85
2022-12-11T09:55:56.474Z,28.27
2022-12-11T09:57:28.308Z,28.13
2022-12-11T09:58:59.621Z,28.97
2022-12-11T10:00:30.845Z,26.84
2022-12-11T10:02:02.052Z,26.33
2022-12-11T10:03:33.226Z,27.92
2022-12-11T10:05:04.515Z,28.02
2022-12-11T10:06:35.899Z,26.12
2022-12-11T10:08:07.345Z,28.18
2022-12-11T10:09:38.637Z,28.93
2022-12-11T10:11:09.811Z,27.33
2022-12-11T10:12:41.073Z,27.25
2022-12-11T10:14:12.491Z,28.79
2022-12-11T10:15:43.858Z,27.41
2022-12-11T10:17:15.373Z,29.18
2022-12-11T10:18:46.548Z,28.14
2022-12-11T10:20:17.805Z,30.02
2022-12-11T10:21:49.019Z,31.93
2022-12-11T10:23:20.452Z,27.84
2022-12-11T10:25:11.317Z,31.26
2022-12-11T10:26:43.558Z,30.73
2022-12-11T10:28:14.999Z,32.65
2022-12-11T10:29:46.347Z,32.33
2022-12-11T10:31:17.927Z,33.27
2022-12-11T10:32:49.392Z,32.04
2022-12-11T10:34:20.943Z,30.66
2022-12-11T10:35:52.301Z,31.19
2022-12-11T10:37:23.535Z,30.34
2022-12-11T10:38:54.910Z,32.85
2022-12-11T10:40:26.397Z,38.61
2022-12-11T10:41:57.666Z,34.89
2022-12-11T10:43:29.089Z,27.89
2022-12-11T10:45:00.649Z,25.22
2022-12-11T10:46:31.976Z,24.98
2022-12-11T10:48:03.175Z,25.90
2022-12-11T10:49:34.347Z,24.12
2022-12-11T10:51:05.536Z,25.69
2022-12-11T10:52:36.754Z,26.85
2022-12-11T10:54:08.236Z,31.66
2022-12-11T10:55:39.824Z,28.50
2022-12-11T10:57:11.263Z,26.81
2022-12-11T10:58:42.566Z,25.25
2022-12-11T11:00:13.996Z,25.32
2022-12-11T11:01:45.289Z,26.28
2022-12-11T11:03:17.494Z,25.94
2022-12-11T11:04:48.800Z,19.83
2022-12-11T11:06:20.027Z,23.45
2022-12-11T11:07:51.613Z,23.89
2022-12-11T11:09:23.187Z,17.58
2022-12-11T11:10:54.419Z,17.20
2022-12-11T11:12:25.721Z,17.44
2022-12-11T11:13:56.964Z,18.64
2022-12-11T11:15:28.493Z,18.44
2022-12-11T11:16:59.841Z,17.77
2022-12-11T11:18:31.034Z,19.24
2022-12-11T11:20:02.235Z,17.86
2022-12-11T11:21:33.473Z,19.23
2022-12-11T11:23:04.623Z,19.02
2022-12-11T11:24:35.875Z,17.81
2022-12-11T11:26:07.079Z,19.10
2022-12-11T11:27:40.178Z,20.44
2022-12-11T11:29:11.560Z,21.07
2022-12-11T11:30:42.901Z,20.95
2022-12-11T11:32:14.221Z,22.77
2022-12-11T11:33:45.515Z,24.98
2022-12-11T11:35:16.808Z,25.75
2022-12-11T11:36:48.081Z,25.53
2022-12-11T11:38:19.494Z,25.50
2022-12-11T11:39:50.891Z,25.09
2022-12-11T11:41:27.145Z,23.59
2022-12-11T11:42:58.466Z,21.13
2022-12-11T11:44:29.675Z,22.81
2022-12-11T11:46:00.884Z,22.83
2022-12-11T11:47:32.072Z,22.55
2022-12-11T11:49:03.272Z,22.40
2022-12-11T11:50:34.423Z,20.19
2022-12-11T11:52:10.817Z,21.00
2022-12-11T11:53:42.139Z,19.39
2022-12-11T11:55:16.218Z,19.11
2022-12-11T11:56:51.392Z,17.65
2022-12-11T11:58:22.866Z,17.28
2022-12-11T11:59:54.327Z,20.38
2022-12-11T12:01:25.623Z,19.80
2022-12-11T12:02:57.104Z,20.37
2022-12-11T12:04:28.567Z,21.09
2022-12-11T12:05:59.944Z,22.82
2022-12-11T12:07:31.298Z,21.68
2022-12-11T12:09:02.718Z,23.79
2022-12-11T12:10:34.268Z,23.11
2022-12-11T12:12:05.440Z,23.70
2022-12-11T12:13:50.505Z,24.27
2022-12-11T12:15:21.950Z,27.07
2022-12-11T12:16:53.895Z,26.76
2022-12-11T12:18:25.276Z,29.65
2022-12-11T12:19:56.572Z,28.57
2022-12-11T12:21:27.995Z,27.55
2022-12-11T12:22:59.336Z,28.99
2022-12-11T12:24:30.559Z,26.47
2022-12-11T12:26:01.813Z,26.45
2022-12-11T12:27:52.134Z,29.41
2022-12-11T12:29:24.032Z,25.19
2022-12-11T12:30:55.273Z,27.68
2022-12-11T12:32:26.875Z,27.47
2022-12-11T12:33:58.147Z,29.57
2022-12-11T12:35:29.351Z,30.20
2022-12-11T12:37:00.683Z,29.25
2022-12-11T12:38:32.033Z,29.58
2022-12-11T12:40:03.332Z,28.98
2022-12-11T12:41:34.508Z,31.50
2022-12-11T12:43:05.711Z,30.91
2022-12-11T12:44:36.953Z,30.91
2022-12-11T12:46:08.302Z,29.10
2022-12-11T12:47:39.918Z,29.00
2022-12-11T12:49:11.463Z,31.13
2022-12-11T12:50:42.713Z,35.93
2022-12-11T12:52:14.199Z,36.55
2022-12-11T12:53:45.380Z,24.60
2022-12-11T12:55:16.758Z,22.75
2022-12-11T12:56:48.036Z,22.97
2022-12-11T12:58:19.243Z,24.04
2022-12-11T12:59:50.469Z,28.57
2022-12-11T13:01:21.792Z,27.00
2022-12-11T13:02:53.129Z,22.38
2022-12-11T13:04:54.038Z,20.85
2022-12-11T13:06:26.718Z,20.94
2022-12-11T13:07:58.014Z,20.65
2022-12-11T13:09:29.277Z,20.92
2022-12-11T13:11:00.765Z,21.70
2022-12-11T13:12:47.201Z,26.75
2022-12-11T13:14:23.631Z,24.96
2022-12-11T13:15:54.959Z,20.09
2022-12-11T13:17:26.388Z,21.95
2022-12-11T13:18:57.719Z,26.33
2022-12-11T13:20:28.953Z,24.48
2022-12-11T13:22:00.201Z,24.16
2022-12-11T13:23:31.435Z,24.02
2022-12-11T13:25:02.776Z,25.21
2022-12-11T13:26:34.312Z,23.47
2022-12-11T13:28:05.555Z,22.64
2022-12-11T13:29:36.840Z,24.54
2022-12-11T13:31:08.327Z,21.93
2022-12-11T13:32:39.712Z,22.88
2022-12-11T13:34:11.220Z,23.97
2022-12-11T13:35:42.483Z,24.21
2022-12-11T13:37:13.706Z,22.80
2022-12-11T13:38:44.975Z,22.64
2022-12-11T13:40:16.444Z,27.02
2022-12-11T13:41:47.679Z,24.68
2022-12-11T13:43:18.915Z,24.48
2022-12-11T13:44:50.423Z,25.29
2022-12-11T13:46:21.753Z,26.30
2022-12-11T13:47:53.036Z,28.25
2022-12-11T13:49:24.467Z,26.75
2022-12-11T13:50:55.960Z,27.23
2022-12-11T13:52:27.378Z,23.93
2022-12-11T13:53:58.734Z,22.68
2022-12-11T13:55:29.952Z,22.97
2022-12-11T13:57:01.363Z,22.73
2022-12-11T13:58:32.572Z,22.67
2022-12-11T14:00:03.769Z,23.48
2022-12-11T14:01:35.073Z,23.55
2022-12-11T14:03:06.661Z,22.21
2022-12-11T14:04:37.976Z,25.48
2022-12-11T14:06:12.088Z,24.31
2022-12-11T14:07:48.262Z,24.17
2022-12-11T14:09:19.511Z,25.68
2022-12-11T14:10:50.765Z,25.22
2022-12-11T14:12:22.224Z,24.89
2022-12-11T14:13:53.540Z,26.64
2022-12-11T14:15:24.773Z,25.67
2022-12-11T14:16:56.403Z,23.63
2022-12-11T14:18:27.644Z,25.56
2022-12-11T14:19:58.999Z,24.00
2022-12-11T14:21:30.243Z,23.93
2022-12-11T14:23:01.489Z,24.79
2022-12-11T14:24:32.735Z,26.68
2022-12-11T14:26:03.930Z,25.99
2022-12-11T14:27:35.330Z,26.23
2022-12-11T14:29:06.616Z,25.88
2022-12-11T14:30:37.800Z,27.49
2022-12-11T14:32:09.087Z,27.77
2022-12-11T14:33:40.285Z,25.26
2022-12-11T14:35:11.524Z,25.74
2022-12-11T14:36:43.021Z,26.40
2022-12-11T14:38:14.614Z,25.87
2022-12-11T14:39:45.837Z,26.66
2022-12-11T14:41:17.198Z,27.65
2022-12-11T14:42:48.427Z,27.32
2022-12-11T14:44:19.674Z,26.16
2022-12-11T14:45:51.000Z,25.65
2022-12-11T14:47:22.462Z,28.59
2022-12-11T14:48:59.139Z,28.22
2022-12-11T14:50:51.892Z,27.85
2022-12-11T14:52:23.080Z,28.57
2022-12-11T14:53:54.337Z,28.97
2022-12-11T14:55:56.725Z,28.29
2022-12-11T14:57:28.144Z,29.17
2022-12-11T14:59:00.264Z,29.36
2022-12-11T15:00:31.754Z,64.85
2022-12-11T15:02:03.228Z,248.89
2022-12-11T15:03:34.586Z,120.59
2022-12-11T15:05:05.913Z,39.19
2022-12-11T15:06:38.195Z,28.14
2022-12-11T15:08:09.533Z,29.62
2022-12-11T15:09:40.824Z,31.27
2022-12-11T15:11:11.993Z,29.26
2022-12-11T15:12:43.235Z,27.91
2022-12-11T15:14:14.633Z,26.64
2022-12-11T15:15:46.171Z,28.09
2022-12-11T15:17:17.724Z,27.17
2022-12-11T15:18:49.128Z,27.68
2022-12-11T15:20:21.235Z,27.34
2022-12-11T15:21:52.639Z,27.42
2022-12-11T15:23:23.853Z,28.32
2022-12-11T15:24:55.828Z,26.05
2022-12-11T15:26:27.169Z,27.92
2022-12-11T15:27:59.367Z,27.95
2022-12-11T15:29:30.916Z,25.99
2022-12-11T15:31:17.236Z,27.27
2022-12-11T15:32:58.639Z,28.71
2022-12-11T15:34:29.824Z,28.43
2022-12-11T15:36:01.189Z,27.26
2022-12-11T15:37:32.406Z,28.02
2022-12-11T15:39:03.732Z,28.46
2022-12-11T15:40:35.250Z,29.94
2022-12-11T15:42:06.520Z,28.38
2022-12-11T15:43:38.052Z,27.36
2022-12-11T15:45:09.887Z,26.14
2022-12-11T15:46:41.520Z,27.37
2022-12-11T15:48:12.737Z,27.41
2022-12-11T15:49:43.902Z,27.43
2022-12-11T15:51:25.156Z,29.31
2022-12-11T15:52:56.367Z,30.53
2022-12-11T15:54:27.586Z,28.15
2022-12-11T15:56:08.305Z,30.01
2022-12-11T15:57:39.513Z,28.29
2022-12-11T15:59:10.703Z,26.55
2022-12-11T16:00:41.975Z,28.63
2022-12-11T16:02:13.337Z,26.93
2022-12-11T16:03:44.655Z,28.05
2022-12-11T16:05:16.111Z,27.31
2022-12-11T16:06:47.421Z,28.16
2022-12-11T16:08:18.895Z,31.43
2022-12-11T16:09:50.300Z,31.16
2022-12-11T16:11:21.535Z,30.02
2022-12-11T16:12:52.797Z,31.18
2022-12-11T16:14:29.217Z,29.92
2022-12-11T16:16:22.230Z,31.01
2022-12-11T16:18:17.759Z,31.72
2022-12-11T16:19:59.306Z,30.45
2022-12-11T16:21:35.843Z,32.40
2022-12-11T16:23:23.341Z,31.57
2022-12-11T16:24:54.880Z,29.77
2022-12-11T16:26:26.234Z,29.79
2022-12-11T16:28:07.953Z,31.50
2022-12-11T16:29:59.248Z,30.47
2022-12-11T16:31:40.561Z,33.08
2022-12-11T16:33:41.890Z,31.29
2022-12-11T16:35:19.018Z,30.98
2022-12-11T16:36:50.706Z,33.45
2022-12-11T16:38:32.003Z,31.36
2022-12-11T16:40:03.124Z,34.66
2022-12-11T16:41:34.322Z,35.67
2022-12-11T16:43:05.639Z,35.97
2022-12-11T16:44:42.411Z,36.33
2022-12-11T16:46:15.405Z,34.26
2022-12-11T16:47:56.823Z,36.80
2022-12-11T16:49:38.031Z,36.41
2022-12-11T16:51:09.532Z,35.46
2022-12-11T16:52:40.785Z,37.98
2022-12-11T16:54:12.205Z,33.51
2022-12-11T16:55:55.672Z,34.77
2022-12-11T16:57:36.995Z,34.07
2022-12-11T16:59:08.404Z,34.33
2022-12-11T17:00:45.302Z,33.87
2022-12-11T17:02:16.611Z,35.00
2022-12-11T17:04:14.723Z,36.57
2022-12-11T17:06:08.964Z,34.61
2022-12-11T17:08:02.628Z,34.26
2022-12-11T17:09:44.044Z,33.68
2022-12-11T17:11:35.706Z,34.89
2022-12-11T17:13:06.954Z,34.93
2022-12-11T17:14:48.699Z,35.06
2022-12-11T17:16:50.423Z,33.16
2022-12-11T17:18:22.196Z,33.51
2022-12-11T17:19:53.949Z,32.06
2022-12-11T17:21:44.808Z,34.21
2022-12-11T17:23:19.713Z,34.33
2022-12-11T17:24:50.939Z,35.49
2022-12-11T17:26:32.291Z,36.01
2022-12-11T17:28:03.654Z,40.05
2022-12-11T17:29:35.351Z,38.17
2022-12-11T17:31:07.042Z,38.93
2022-12-11T17:33:11.968Z,37.82
2022-12-11T17:34:49.405Z,36.26
2022-12-11T17:36:20.846Z,37.10
2022-12-11T17:37:53.402Z,36.32
2022-12-11T17:39:24.921Z,36.87
2022-12-11T17:40:56.143Z,35.06
2022-12-11T17:42:27.661Z,36.47
2022-12-11T17:43:59.114Z,35.65
2022-12-11T17:45:30.449Z,35.11
2022-12-11T17:47:06.068Z,35.78
2022-12-11T17:48:40.644Z,36.23
2022-12-11T17:50:11.909Z,35.84
2022-12-11T17:51:43.398Z,37.93
2022-12-11T17:53:14.679Z,38.62
2022-12-11T17:54:46.018Z,37.57
2022-12-11T17:56:22.305Z,36.24
2022-12-11T17:57:58.560Z,36.17
2022-12-11T17:59:35.078Z,38.52
2022-12-11T18:01:06.256Z,39.83
2022-12-11T18:02:37.426Z,36.73
2022-12-11T18:04:13.766Z,38.93
2022-12-11T18:05:45.000Z,38.41
2022-12-11T18:07:29.893Z,38.10
2022-12-11T18:09:01.593Z,39.58
2022-12-11T18:10:32.941Z,39.34
2022-12-11T18:12:09.184Z,38.70
2022-12-11T18:13:55.436Z,38.03
2022-12-11T18:15:36.665Z,39.56
2022-12-11T18:17:07.976Z,39.99
2022-12-11T18:19:26.731Z,38.34
2022-12-11T18:20:58.250Z,38.45
2022-12-11T18:22:59.514Z,38.52
2022-12-11T18:24:30.780Z,38.97
2022-12-11T18:26:02.057Z,42.22
2022-12-11T18:27:33.303Z,43.96
2022-12-11T18:29:09.497Z,47.56
2022-12-11T18:30:55.076Z,44.37
2022-12-11T18:32:26.289Z,46.11
2022-12-11T18:33:57.804Z,45.72
2022-12-11T18:35:29.029Z,46.04
2022-12-11T18:37:00.362Z,43.04
2022-12-11T18:38:31.807Z,40.49
2022-12-11T18:40:03.044Z,40.26
2022-12-11T18:41:34.292Z,42.15
2022-12-11T18:43:05.668Z,40.60
2022-12-11T18:44:37.154Z,39.92
2022-12-11T18:46:08.406Z,40.46
2022-12-11T18:47:39.626Z,40.51
2022-12-11T18:49:11.052Z,41.39
2022-12-11T18:50:42.429Z,41.09
2022-12-11T18:52:23.786Z,38.72
2022-12-11T18:54:12.908Z,40.34
2022-12-11T18:55:55.791Z,39.97
2022-12-11T18:57:29.882Z,40.14
2022-12-11T18:59:33.821Z,40.28
2022-12-11T19:01:05.542Z,40.06
2022-12-11T19:02:36.790Z,40.49
2022-12-11T19:04:10.936Z,40.07
2022-12-11T19:05:42.687Z,39.29
2022-12-11T19:07:22.067Z,39.57
2022-12-11T19:08:53.224Z,38.96
2022-12-11T19:10:45.041Z,36.92
2022-12-11T19:12:38.101Z,38.17
2022-12-11T19:14:09.601Z,38.53
2022-12-11T19:15:41.060Z,38.49
2022-12-11T19:17:12.320Z,40.04
2022-12-11T19:19:15.495Z,38.39
2022-12-11T19:20:49.792Z,37.67
2022-12-11T19:22:50.816Z,38.75
2022-12-11T19:24:27.138Z,39.68
2022-12-11T19:25:58.592Z,40.44
2022-12-11T19:27:30.110Z,39.98
2022-12-11T19:29:11.453Z,39.72
2022-12-11T19:30:42.878Z,39.64
2022-12-11T19:32:24.518Z,39.98
2022-12-11T19:33:55.946Z,40.37
2022-12-11T19:35:47.574Z,41.49
2022-12-11T19:37:18.913Z,39.81
2022-12-11T19:38:50.358Z,41.18
2022-12-11T19:40:21.905Z,42.10
2022-12-11T19:41:53.220Z,42.71
2022-12-11T19:43:24.641Z,41.83
2022-12-11T19:45:00.998Z,40.02
2022-12-11T19:46:32.473Z,43.96
2022-12-11T19:48:05.758Z,46.02
2022-12-11T19:49:37.094Z,44.08
2022-12-11T19:51:08.700Z,45.76
2022-12-11T19:52:45.811Z,45.37
2022-12-11T19:54:17.787Z,47.87